sensor_id;sensor_type;location;lat;lon;timestamp;pressure;altitude;pressure_sealevel;temperature;humidity
3122;BME280;1571;52.524;14.104;2023-02-28T00:01:26;102612.09;;;0.35;95.47
3122;BME280;1571;52.524;14.104;2023-02-28T00:03:56;102615.22;;;0.00;95.64
3122;BME280;1571;52.524;14.104;2023-02-28T00:06:24;102609.31;;;0.16;96.24
3122;BME280;1571;52.524;14.104;2023-02-28T00:08:53;102611.94;;;0.19;95.91
3122;BME280;1571;52.524;14.104;2023-02-28T00:11:21;102615.50;;;0.29;95.42
3122;BME280;1571;52.524;14.104;2023-02-28T00:13:49;102615.47;;;0.25;95.58
3122;BME280;1571;52.524;14.104;2023-02-28T00:16:20;102616.47;;;0.34;95.77
3122;BME280;1571;52.524;14.104;2023-02-28T00:18:49;102615.28;;;0.06;96.20
3122;BME280;1571;52.524;14.104;2023-02-28T00:21:19;102614.53;;;0.18;96.54
3122;BME280;1571;52.524;14.104;2023-02-28T00:23:47;102612.59;;;-0.02;96.38
3122;BME280;1571;52.524;14.104;2023-02-28T00:26:16;102611.84;;;0.10;96.48
3122;BME280;1571;52.524;14.104;2023-02-28T00:28:47;102617.06;;;0.10;96.09
3122;BME280;1571;52.524;14.104;2023-02-28T00:31:16;102617.94;;;0.09;96.04
3122;BME280;1571;52.524;14.104;2023-02-28T00:33:44;102628.25;;;-0.02;96.11
3122;BME280;1571;52.524;14.104;2023-02-28T00:36:14;102629.97;;;-0.04;96.27
3122;BME280;1571;52.524;14.104;2023-02-28T00:38:43;102624.38;;;-0.36;96.55
3122;BME280;1571;52.524;14.104;2023-02-28T00:41:11;102624.03;;;-0.59;97.21
3122;BME280;1571;52.524;14.104;2023-02-28T00:43:40;102623.72;;;-0.16;97.10
3122;BME280;1571;52.524;14.104;2023-02-28T00:46:10;102627.13;;;-0.24;97.09
3122;BME280;1571;52.524;14.104;2023-02-28T00:48:38;102623.47;;;-0.38;96.85
3122;BME280;1571;52.524;14.104;2023-02-28T00:51:06;102622.09;;;-0.72;97.38
3122;BME280;1571;52.524;14.104;2023-02-28T00:53:35;102632.00;;;-0.48;97.75
3122;BME280;1571;52.524;14.104;2023-02-28T00:56:05;102617.56;;;-0.25;97.13
3122;BME280;1571;52.524;14.104;2023-02-28T00:58:33;102618.13;;;-0.47;96.70
3122;BME280;1571;52.524;14.104;2023-02-28T01:01:02;102621.38;;;-0.65;97.51
3122;BME280;1571;52.524;14.104;2023-02-28T01:03:30;102618.38;;;-0.26;97.48
3122;BME280;1571;52.524;14.104;2023-02-28T01:05:58;102627.03;;;-0.30;97.06
3122;BME280;1571;52.524;14.104;2023-02-28T01:08:27;102616.56;;;-0.33;96.48
3122;BME280;1571;52.524;14.104;2023-02-28T01:10:55;102614.63;;;-0.49;96.79
3122;BME280;1571;52.524;14.104;2023-02-28T01:13:25;102616.28;;;-0.54;96.58
3122;BME280;1571;52.524;14.104;2023-02-28T01:15:55;102620.28;;;-0.81;97.13
3122;BME280;1571;52.524;14.104;2023-02-28T01:18:24;102616.78;;;-1.36;97.97
3122;BME280;1571;52.524;14.104;2023-02-28T01:20:52;102620.72;;;-1.07;98.67
3122;BME280;1571;52.524;14.104;2023-02-28T01:23:22;102615.75;;;-1.46;99.18
3122;BME280;1571;52.524;14.104;2023-02-28T01:25:51;102619.91;;;-1.57;100.00
3122;BME280;1571;52.524;14.104;2023-02-28T01:28:20;102615.19;;;-1.28;100.00
3122;BME280;1571;52.524;14.104;2023-02-28T01:30:51;102612.97;;;-1.02;100.00
3122;BME280;1571;52.524;14.104;2023-02-28T01:33:19;102611.44;;;-1.42;100.00
3122;BME280;1571;52.524;14.104;2023-02-28T01:35:48;102602.88;;;-1.35;100.00
3122;BME280;1571;52.524;14.104;2023-02-28T01:38:16;102601.69;;;-1.54;100.00
3122;BME280;1571;52.524;14.104;2023-02-28T01:40:49;102598.69;;;-1.77;100.00
3122;BME280;1571;52.524;14.104;2023-02-28T01:43:21;102597.53;;;-1.44;100.00
3122;BME280;1571;52.524;14.104;2023-02-28T01:45:52;102601.03;;;-1.42;100.00
3122;BME280;1571;52.524;14.104;2023-02-28T01:48:22;102597.41;;;-1.52;100.00
3122;BME280;1571;52.524;14.104;2023-02-28T01:50:54;102596.47;;;-1.56;100.00
3122;BME280;1571;52.524;14.104;2023-02-28T01:53:30;102604.50;;;-1.43;100.00
3122;BME280;1571;52.524;14.104;2023-02-28T01:56:00;102607.28;;;-1.81;100.00
3122;BME280;1571;52.524;14.104;2023-02-28T01:58:31;102601.09;;;-1.88;100.00
3122;BME280;1571;52.524;14.104;2023-02-28T02:01:01;102596.41;;;-1.59;100.00
3122;BME280;1571;52.524;14.104;2023-02-28T02:03:30;102597.16;;;-1.66;100.00
3122;BME280;1571;52.524;14.104;2023-02-28T02:05:59;102598.06;;;-1.62;100.00
3122;BME280;1571;52.524;14.104;2023-02-28T02:08:28;102595.63;;;-1.55;100.00
3122;BME280;1571;52.524;14.104;2023-02-28T02:10:59;102591.38;;;-1.50;100.00
3122;BME280;1571;52.524;14.104;2023-02-28T02:13:37;102592.22;;;-1.51;100.00
3122;BME280;1571;52.524;14.104;2023-02-28T02:16:20;102592.75;;;-1.70;100.00
3122;BME280;1571;52.524;14.104;2023-02-28T02:18:53;102593.69;;;-1.65;100.00
3122;BME280;1571;52.524;14.104;2023-02-28T02:21:49;102587.38;;;-1.79;100.00
3122;BME280;1571;52.524;14.104;2023-02-28T02:27:57;102593.31;;;-1.86;100.00
3122;BME280;1571;52.524;14.104;2023-02-28T02:30:46;102590.72;;;-1.86;100.00
3122;BME280;1571;52.524;14.104;2023-02-28T02:34:10;102589.91;;;-1.82;100.00
3122;BME280;1571;52.524;14.104;2023-02-28T02:36:51;102608.38;;;-2.14;100.00
3122;BME280;1571;52.524;14.104;2023-02-28T02:39:27;102604.31;;;-2.44;100.00
3122;BME280;1571;52.524;14.104;2023-02-28T02:42:01;102601.22;;;-2.67;100.00
3122;BME280;1571;52.524;14.104;2023-02-28T02:44:40;102605.34;;;-2.77;100.00
3122;BME280;1571;52.524;14.104;2023-02-28T02:47:14;102602.81;;;-2.33;100.00
3122;BME280;1571;52.524;14.104;2023-02-28T02:49:47;102605.56;;;-2.67;100.00
3122;BME280;1571;52.524;14.104;2023-02-28T02:52:20;102601.31;;;-2.21;100.00
3122;BME280;1571;52.524;14.104;2023-02-28T02:54:54;102602.19;;;-2.63;100.00
3122;BME280;1571;52.524;14.104;2023-02-28T02:57:27;102603.31;;;-2.90;100.00
3122;BME280;1571;52.524;14.104;2023-02-28T02:59:58;102595.78;;;-2.37;100.00
3122;BME280;1571;52.524;14.104;2023-02-28T03:02:28;102595.97;;;-2.27;100.00
3122;BME280;1571;52.524;14.104;2023-02-28T03:05:05;102600.44;;;-2.22;100.00
3122;BME280;1571;52.524;14.104;2023-02-28T03:07:36;102602.09;;;-2.27;100.00
3122;BME280;1571;52.524;14.104;2023-02-28T03:10:29;102608.25;;;-2.63;100.00
3122;BME280;1571;52.524;14.104;2023-02-28T03:16:01;102604.19;;;-2.50;100.00
3122;BME280;1571;52.524;14.104;2023-02-28T03:18:41;102603.88;;;-2.65;100.00
3122;BME280;1571;52.524;14.104;2023-02-28T03:21:20;102612.25;;;-2.77;100.00
3122;BME280;1571;52.524;14.104;2023-02-28T03:23:56;102615.88;;;-2.70;100.00
3122;BME280;1571;52.524;14.104;2023-02-28T03:26:29;102613.47;;;-3.01;100.00
3122;BME280;1571;52.524;14.104;2023-02-28T03:29:02;102622.50;;;-2.85;100.00
3122;BME280;1571;52.524;14.104;2023-02-28T03:31:35;102617.75;;;-2.65;100.00
3122;BME280;1571;52.524;14.104;2023-02-28T03:34:08;102618.00;;;-2.92;100.00
3122;BME280;1571;52.524;14.104;2023-02-28T03:36:41;102620.16;;;-2.74;100.00
3122;BME280;1571;52.524;14.104;2023-02-28T03:39:16;102616.50;;;-3.19;100.00
3122;BME280;1571;52.524;14.104;2023-02-28T03:41:49;102613.00;;;-2.83;100.00
3122;BME280;1571;52.524;14.104;2023-02-28T03:44:23;102614.59;;;-2.89;100.00
3122;BME280;1571;52.524;14.104;2023-02-28T03:46:57;102622.16;;;-3.35;100.00
3122;BME280;1571;52.524;14.104;2023-02-28T03:49:31;102620.34;;;-3.03;100.00
3122;BME280;1571;52.524;14.104;2023-02-28T03:52:04;102622.06;;;-3.03;100.00
3122;BME280;1571;52.524;14.104;2023-02-28T03:54:39;102618.00;;;-2.92;100.00
3122;BME280;1571;52.524;14.104;2023-02-28T03:57:12;102610.97;;;-3.32;100.00
3122;BME280;1571;52.524;14.104;2023-02-28T03:59:45;102617.59;;;-3.09;100.00
3122;BME280;1571;52.524;14.104;2023-02-28T04:02:15;102612.66;;;-2.98;100.00
3122;BME280;1571;52.524;14.104;2023-02-28T04:04:43;102618.97;;;-2.87;100.00
3122;BME280;1571;52.524;14.104;2023-02-28T04:07:17;102617.69;;;-3.06;100.00
3122;BME280;1571;52.524;14.104;2023-02-28T04:09:45;102618.72;;;-2.98;100.00
3122;BME280;1571;52.524;14.104;2023-02-28T04:12:14;102616.22;;;-2.95;100.00
3122;BME280;1571;52.524;14.104;2023-02-28T04:14:42;102622.13;;;-3.00;100.00
3122;BME280;1571;52.524;14.104;2023-02-28T04:17:10;102614.88;;;-3.15;100.00
3122;BME280;1571;52.524;14.104;2023-02-28T04:19:38;102621.31;;;-2.98;100.00
3122;BME280;1571;52.524;14.104;2023-02-28T04:22:08;102615.81;;;-3.11;100.00
3122;BME280;1571;52.524;14.104;2023-02-28T04:24:38;102614.59;;;-3.26;100.00
3122;BME280;1571;52.524;14.104;2023-02-28T04:27:08;102620.38;;;-3.01;100.00
3122;BME280;1571;52.524;14.104;2023-02-28T04:29:37;102621.19;;;-3.04;100.00
3122;BME280;1571;52.524;14.104;2023-02-28T04:32:05;102617.41;;;-3.17;100.00
3122;BME280;1571;52.524;14.104;2023-02-28T04:34:34;102619.47;;;-3.38;100.00
3122;BME280;1571;52.524;14.104;2023-02-28T04:37:02;102624.13;;;-3.25;100.00
3122;BME280;1571;52.524;14.104;2023-02-28T04:39:42;102625.22;;;-3.17;100.00
3122;BME280;1571;52.524;14.104;2023-02-28T04:42:11;102621.69;;;-3.19;100.00
3122;BME280;1571;52.524;14.104;2023-02-28T04:44:40;102625.75;;;-3.30;100.00
3122;BME280;1571;52.524;14.104;2023-02-28T04:47:08;102623.84;;;-3.36;100.00
3122;BME280;1571;52.524;14.104;2023-02-28T04:49:36;102623.19;;;-3.28;100.00
3122;BME280;1571;52.524;14.104;2023-02-28T04:52:05;102630.75;;;-3.38;100.00
3122;BME280;1571;52.524;14.104;2023-02-28T04:54:34;102633.53;;;-3.30;100.00
3122;BME280;1571;52.524;14.104;2023-02-28T04:57:04;102630.94;;;-3.30;100.00
3122;BME280;1571;52.524;14.104;2023-02-28T04:59:33;102632.31;;;-3.44;100.00
3122;BME280;1571;52.524;14.104;2023-02-28T05:02:01;102632.22;;;-3.49;100.00
3122;BME280;1571;52.524;14.104;2023-02-28T05:04:34;102630.84;;;-3.35;100.00
3122;BME280;1571;52.524;14.104;2023-02-28T05:07:02;102640.88;;;-3.47;100.00
3122;BME280;1571;52.524;14.104;2023-02-28T05:09:31;102639.53;;;-3.66;100.00
3122;BME280;1571;52.524;14.104;2023-02-28T05:11:59;102646.47;;;-3.65;100.00
3122;BME280;1571;52.524;14.104;2023-02-28T05:14:29;102644.81;;;-3.63;100.00
3122;BME280;1571;52.524;14.104;2023-02-28T05:16:57;102644.66;;;-3.69;100.00
3122;BME280;1571;52.524;14.104;2023-02-28T05:19:25;102652.69;;;-3.60;100.00
3122;BME280;1571;52.524;14.104;2023-02-28T05:21:54;102651.88;;;-3.57;100.00
3122;BME280;1571;52.524;14.104;2023-02-28T05:24:23;102657.00;;;-3.92;100.00
3122;BME280;1571;52.524;14.104;2023-02-28T05:26:53;102658.75;;;-4.21;100.00
3122;BME280;1571;52.524;14.104;2023-02-28T05:29:22;102667.53;;;-3.86;100.00
3122;BME280;1571;52.524;14.104;2023-02-28T05:31:51;102660.25;;;-3.69;100.00
3122;BME280;1571;52.524;14.104;2023-02-28T05:34:20;102662.06;;;-3.65;100.00
3122;BME280;1571;52.524;14.104;2023-02-28T05:36:48;102670.63;;;-3.69;100.00
3122;BME280;1571;52.524;14.104;2023-02-28T05:39:16;102663.66;;;-3.70;100.00
3122;BME280;1571;52.524;14.104;2023-02-28T05:41:44;102662.66;;;-3.75;100.00
3122;BME280;1571;52.524;14.104;2023-02-28T05:44:12;102650.66;;;-3.70;100.00
3122;BME280;1571;52.524;14.104;2023-02-28T05:46:41;102661.66;;;-4.10;100.00
3122;BME280;1571;52.524;14.104;2023-02-28T05:49:10;102668.66;;;-3.76;100.00
3122;BME280;1571;52.524;14.104;2023-02-28T05:51:39;102665.94;;;-3.82;100.00
3122;BME280;1571;52.524;14.104;2023-02-28T05:54:07;102670.50;;;-3.72;100.00
3122;BME280;1571;52.524;14.104;2023-02-28T05:56:37;102667.97;;;-3.70;100.00
3122;BME280;1571;52.524;14.104;2023-02-28T05:59:06;102682.69;;;-3.71;100.00
3122;BME280;1571;52.524;14.104;2023-02-28T06:01:36;102674.53;;;-3.83;100.00
3122;BME280;1571;52.524;14.104;2023-02-28T06:04:08;102683.56;;;-3.70;100.00
3122;BME280;1571;52.524;14.104;2023-02-28T06:06:50;102677.25;;;-3.80;100.00
3122;BME280;1571;52.524;14.104;2023-02-28T06:09:18;102677.25;;;-3.79;100.00
3122;BME280;1571;52.524;14.104;2023-02-28T06:11:47;102676.63;;;-3.71;100.00
3122;BME280;1571;52.524;14.104;2023-02-28T06:14:16;102682.81;;;-3.66;100.00
3122;BME280;1571;52.524;14.104;2023-02-28T06:16:45;102687.69;;;-3.77;100.00
3122;BME280;1571;52.524;14.104;2023-02-28T06:19:14;102686.28;;;-3.66;100.00
3122;BME280;1571;52.524;14.104;2023-02-28T06:21:43;102682.69;;;-3.71;100.00
3122;BME280;1571;52.524;14.104;2023-02-28T06:24:13;102688.19;;;-3.59;100.00
3122;BME280;1571;52.524;14.104;2023-02-28T06:26:41;102691.88;;;-3.50;100.00
3122;BME280;1571;52.524;14.104;2023-02-28T06:29:09;102692.06;;;-3.44;100.00
3122;BME280;1571;52.524;14.104;2023-02-28T06:31:38;102687.00;;;-3.38;100.00
3122;BME280;1571;52.524;14.104;2023-02-28T06:34:06;102687.63;;;-3.47;100.00
3122;BME280;1571;52.524;14.104;2023-02-28T06:36:35;102692.81;;;-3.47;100.00
3122;BME280;1571;52.524;14.104;2023-02-28T06:39:03;102693.41;;;-3.25;100.00
3122;BME280;1571;52.524;14.104;2023-02-28T06:41:33;102697.97;;;-3.17;100.00
3122;BME280;1571;52.524;14.104;2023-02-28T06:44:21;102707.78;;;-3.05;100.00
3122;BME280;1571;52.524;14.104;2023-02-28T06:46:49;102710.31;;;-3.06;100.00
3122;BME280;1571;52.524;14.104;2023-02-28T06:49:18;102705.69;;;-2.85;100.00
3122;BME280;1571;52.524;14.104;2023-02-28T06:51:46;102708.22;;;-2.88;100.00
3122;BME280;1571;52.524;14.104;2023-02-28T06:54:14;102714.63;;;-2.74;100.00
3122;BME280;1571;52.524;14.104;2023-02-28T06:56:44;102713.00;;;-2.68;100.00
3122;BME280;1571;52.524;14.104;2023-02-28T06:59:12;102721.94;;;-2.57;100.00
3122;BME280;1571;52.524;14.104;2023-02-28T07:01:40;102719.88;;;-2.34;100.00
3122;BME280;1571;52.524;14.104;2023-02-28T07:04:09;102715.19;;;-2.10;100.00
3122;BME280;1571;52.524;14.104;2023-02-28T07:06:37;102713.09;;;-2.26;100.00
3122;BME280;1571;52.524;14.104;2023-02-28T07:09:05;102714.69;;;-2.34;100.00
3122;BME280;1571;52.524;14.104;2023-02-28T07:11:36;102716.63;;;-2.24;100.00
3122;BME280;1571;52.524;14.104;2023-02-28T07:14:05;102705.28;;;-1.86;100.00
3122;BME280;1571;52.524;14.104;2023-02-28T07:16:33;102705.59;;;-1.71;100.00
3122;BME280;1571;52.524;14.104;2023-02-28T07:19:02;102702.69;;;-1.41;100.00
3122;BME280;1571;52.524;14.104;2023-02-28T07:21:30;102713.63;;;-1.59;100.00
3122;BME280;1571;52.524;14.104;2023-02-28T07:23:58;102708.13;;;-1.27;100.00
3122;BME280;1571;52.524;14.104;2023-02-28T07:26:26;102711.06;;;-1.10;100.00
3122;BME280;1571;52.524;14.104;2023-02-28T07:28:55;102704.16;;;-1.07;100.00
3122;BME280;1571;52.524;14.104;2023-02-28T07:31:24;102707.69;;;-1.01;100.00
3122;BME280;1571;52.524;14.104;2023-02-28T07:33:53;102707.88;;;-0.92;100.00
3122;BME280;1571;52.524;14.104;2023-02-28T07:36:21;102707.78;;;-0.98;100.00
3122;BME280;1571;52.524;14.104;2023-02-28T07:38:49;102708.47;;;-0.55;100.00
3122;BME280;1571;52.524;14.104;2023-02-28T07:41:19;102708.22;;;-0.71;98.99
3122;BME280;1571;52.524;14.104;2023-02-28T07:43:47;102708.25;;;-0.68;98.62
3122;BME280;1571;52.524;14.104;2023-02-28T07:46:16;102703.28;;;-0.52;98.29
3122;BME280;1571;52.524;14.104;2023-02-28T07:48:48;102715.03;;;-0.79;97.81
3122;BME280;1571;52.524;14.104;2023-02-28T07:51:16;102714.38;;;-0.67;97.50
3122;BME280;1571;52.524;14.104;2023-02-28T07:53:45;102709.41;;;0.15;99.80
3122;BME280;1571;52.524;14.104;2023-02-28T07:56:13;102715.38;;;0.07;98.40
3122;BME280;1571;52.524;14.104;2023-02-28T07:58:41;102707.09;;;-0.29;97.67
3122;BME280;1571;52.524;14.104;2023-02-28T08:01:10;102711.66;;;0.59;96.84
3122;BME280;1571;52.524;14.104;2023-02-28T08:03:39;102705.66;;;0.68;95.15
3122;BME280;1571;52.524;14.104;2023-02-28T08:06:15;102705.44;;;0.48;93.89
3122;BME280;1571;52.524;14.104;2023-02-28T08:08:44;102705.50;;;0.53;93.58
3122;BME280;1571;52.524;14.104;2023-02-28T08:11:12;102709.06;;;0.61;92.54
3122;BME280;1571;52.524;14.104;2023-02-28T08:13:41;102710.75;;;0.54;93.19
3122;BME280;1571;52.524;14.104;2023-02-28T08:16:11;102710.91;;;0.74;91.92
3122;BME280;1571;52.524;14.104;2023-02-28T08:18:42;102704.56;;;0.49;91.62
3122;BME280;1571;52.524;14.104;2023-02-28T08:21:12;102703.56;;;1.27;91.10
3122;BME280;1571;52.524;14.104;2023-02-28T08:23:40;102702.41;;;0.94;89.30
3122;BME280;1571;52.524;14.104;2023-02-28T08:26:09;102700.03;;;1.23;89.17
3122;BME280;1571;52.524;14.104;2023-02-28T08:28:38;102696.66;;;1.41;87.35
3122;BME280;1571;52.524;14.104;2023-02-28T08:31:10;102692.09;;;1.12;86.77
3122;BME280;1571;52.524;14.104;2023-02-28T08:33:38;102699.97;;;1.17;85.62
3122;BME280;1571;52.524;14.104;2023-02-28T08:36:08;102693.22;;;1.47;83.32
3122;BME280;1571;52.524;14.104;2023-02-28T08:38:38;102691.59;;;1.67;80.59
3122;BME280;1571;52.524;14.104;2023-02-28T08:41:09;102696.03;;;1.83;79.33
3122;BME280;1571;52.524;14.104;2023-02-28T08:43:39;102691.72;;;1.90;78.85
3122;BME280;1571;52.524;14.104;2023-02-28T08:46:11;102685.81;;;2.54;77.37
3122;BME280;1571;52.524;14.104;2023-02-28T08:48:40;102681.34;;;2.19;75.65
3122;BME280;1571;52.524;14.104;2023-02-28T08:51:10;102682.25;;;2.29;74.83
3122;BME280;1571;52.524;14.104;2023-02-28T08:53:40;102672.69;;;2.54;72.60
3122;BME280;1571;52.524;14.104;2023-02-28T08:56:10;102663.94;;;2.40;69.80
3122;BME280;1571;52.524;14.104;2023-02-28T08:58:39;102669.19;;;2.49;70.08
3122;BME280;1571;52.524;14.104;2023-02-28T09:01:09;102671.75;;;2.29;69.23
3122;BME280;1571;52.524;14.104;2023-02-28T09:03:37;102677.94;;;2.54;69.29
3122;BME280;1571;52.524;14.104;2023-02-28T09:06:06;102684.06;;;2.65;69.78
3122;BME280;1571;52.524;14.104;2023-02-28T09:08:34;102686.69;;;2.56;69.50
3122;BME280;1571;52.524;14.104;2023-02-28T09:11:05;102690.16;;;2.40;70.10
3122;BME280;1571;52.524;14.104;2023-02-28T09:13:33;102691.94;;;2.53;70.53
3122;BME280;1571;52.524;14.104;2023-02-28T09:16:04;102694.59;;;2.73;68.85
3122;BME280;1571;52.524;14.104;2023-02-28T09:18:33;102681.47;;;2.78;67.41
3122;BME280;1571;52.524;14.104;2023-02-28T09:21:03;102678.00;;;3.05;67.33
3122;BME280;1571;52.524;14.104;2023-02-28T09:23:32;102678.00;;;3.00;66.65
3122;BME280;1571;52.524;14.104;2023-02-28T09:26:00;102674.50;;;3.12;63.82
3122;BME280;1571;52.524;14.104;2023-02-28T09:28:30;102668.38;;;3.16;63.67
3122;BME280;1571;52.524;14.104;2023-02-28T09:30:58;102677.94;;;3.46;63.75
3122;BME280;1571;52.524;14.104;2023-02-28T09:33:27;102667.50;;;2.96;62.53
3122;BME280;1571;52.524;14.104;2023-02-28T09:35:58;102660.47;;;3.36;62.24
3122;BME280;1571;52.524;14.104;2023-02-28T09:38:27;102677.03;;;3.60;62.75
3122;BME280;1571;52.524;14.104;2023-02-28T09:40:58;102677.81;;;3.92;62.88
3122;BME280;1571;52.524;14.104;2023-02-28T09:43:31;102676.19;;;3.42;61.33
3122;BME280;1571;52.524;14.104;2023-02-28T09:46:07;102670.06;;;3.52;60.06
3122;BME280;1571;52.524;14.104;2023-02-28T09:48:41;102677.06;;;3.63;60.27
3122;BME280;1571;52.524;14.104;2023-02-28T09:51:26;102673.53;;;3.58;58.89
3122;BME280;1571;52.524;14.104;2023-02-28T09:53:56;102675.31;;;3.42;58.74
3122;BME280;1571;52.524;14.104;2023-02-28T09:56:33;102692.00;;;3.11;59.28
3122;BME280;1571;52.524;14.104;2023-02-28T09:59:11;102686.72;;;3.33;59.32
3122;BME280;1571;52.524;14.104;2023-02-28T10:01:47;102689.31;;;3.59;59.90
3122;BME280;1571;52.524;14.104;2023-02-28T10:04:35;102688.44;;;3.51;59.13
3122;BME280;1571;52.524;14.104;2023-02-28T10:07:14;102691.88;;;3.73;59.32
3122;BME280;1571;52.524;14.104;2023-02-28T10:09:50;102690.13;;;3.75;58.19
3122;BME280;1571;52.524;14.104;2023-02-28T10:12:20;102695.44;;;3.63;58.68
3122;BME280;1571;52.524;14.104;2023-02-28T10:14:51;102694.59;;;3.31;59.63
3122;BME280;1571;52.524;14.104;2023-02-28T10:17:23;102693.72;;;3.28;58.44
3122;BME280;1571;52.524;14.104;2023-02-28T10:19:58;102696.34;;;2.94;59.35
3122;BME280;1571;52.524;14.104;2023-02-28T10:22:40;102710.34;;;3.19;60.26
3122;BME280;1571;52.524;14.104;2023-02-28T10:25:18;102713.88;;;3.29;59.48
3122;BME280;1571;52.524;14.104;2023-02-28T10:27:46;102704.25;;;3.16;58.77
3122;BME280;1571;52.524;14.104;2023-02-28T10:30:16;102700.72;;;3.20;58.46
3122;BME280;1571;52.524;14.104;2023-02-28T10:32:48;102704.19;;;3.52;59.10
3122;BME280;1571;52.524;14.104;2023-02-28T10:35:22;102699.81;;;3.54;59.03
3122;BME280;1571;52.524;14.104;2023-02-28T10:37:53;102705.97;;;3.26;59.08
3122;BME280;1571;52.524;14.104;2023-02-28T10:40:30;102698.91;;;3.71;58.59
3122;BME280;1571;52.524;14.104;2023-02-28T10:43:00;102691.97;;;3.41;58.51
3122;BME280;1571;52.524;14.104;2023-02-28T10:45:32;102705.06;;;3.38;58.88
3122;BME280;1571;52.524;14.104;2023-02-28T10:48:04;102697.22;;;3.30;58.50
3122;BME280;1571;52.524;14.104;2023-02-28T10:50:37;102688.38;;;3.77;58.94
3122;BME280;1571;52.524;14.104;2023-02-28T10:53:17;102690.13;;;3.78;58.47
3122;BME280;1571;52.524;14.104;2023-02-28T10:55:56;102689.31;;;3.59;58.34
3122;BME280;1571;52.524;14.104;2023-02-28T10:58:27;102686.72;;;3.15;58.48
3122;BME280;1571;52.524;14.104;2023-02-28T11:00:58;102686.66;;;3.76;59.44
3122;BME280;1571;52.524;14.104;2023-02-28T11:03:32;102686.56;;;3.99;59.23
3122;BME280;1571;52.524;14.104;2023-02-28T11:06:06;102682.09;;;4.18;58.28
3122;BME280;1571;52.524;14.104;2023-02-28T11:08:44;102683.00;;;4.12;58.59
3122;BME280;1571;52.524;14.104;2023-02-28T11:11:13;102681.41;;;3.64;58.23
3122;BME280;1571;52.524;14.104;2023-02-28T11:13:44;102681.44;;;3.61;59.15
3122;BME280;1571;52.524;14.104;2023-02-28T11:16:14;102685.75;;;3.83;58.71
3122;BME280;1571;52.524;14.104;2023-02-28T11:18:47;102690.88;;;4.17;58.77
3122;BME280;1571;52.524;14.104;2023-02-28T11:21:23;102682.13;;;4.10;57.88
3122;BME280;1571;52.524;14.104;2023-02-28T11:24:03;102689.09;;;4.17;58.45
3122;BME280;1571;52.524;14.104;2023-02-28T11:26:37;102698.72;;;4.26;58.16
3122;BME280;1571;52.524;14.104;2023-02-28T11:29:12;102693.59;;;3.99;57.53
3122;BME280;1571;52.524;14.104;2023-02-28T11:32:01;102683.91;;;4.10;57.13
3122;BME280;1571;52.524;14.104;2023-02-28T11:34:30;102698.81;;;3.94;57.10
3122;BME280;1571;52.524;14.104;2023-02-28T11:37:00;102684.84;;;3.78;56.33
3122;BME280;1571;52.524;14.104;2023-02-28T11:39:32;102689.28;;;3.76;57.25
3122;BME280;1571;52.524;14.104;2023-02-28T11:42:18;102699.84;;;3.41;57.13
3122;BME280;1571;52.524;14.104;2023-02-28T11:44:58;102693.72;;;3.37;57.29
3122;BME280;1571;52.524;14.104;2023-02-28T11:47:38;102697.88;;;4.12;58.07
3122;BME280;1571;52.524;14.104;2023-02-28T11:50:18;102694.38;;;4.11;57.36
3122;BME280;1571;52.524;14.104;2023-02-28T11:52:52;102696.03;;;4.35;57.79
3122;BME280;1571;52.524;14.104;2023-02-28T11:55:24;102696.06;;;4.26;57.10
3122;BME280;1571;52.524;14.104;2023-02-28T11:58:14;102687.50;;;3.80;56.53
3122;BME280;1571;52.524;14.104;2023-02-28T12:00:57;102686.53;;;4.04;56.36
3122;BME280;1571;52.524;14.104;2023-02-28T12:03:39;102680.38;;;4.05;56.67
3122;BME280;1571;52.524;14.104;2023-02-28T12:06:17;102675.13;;;4.08;56.71
3122;BME280;1571;52.524;14.104;2023-02-28T12:09:01;102665.56;;;3.88;56.34
3122;BME280;1571;52.524;14.104;2023-02-28T12:11:36;102670.75;;;4.10;56.21
3122;BME280;1571;52.524;14.104;2023-02-28T12:14:35;102657.59;;;4.07;55.83
3122;BME280;1571;52.524;14.104;2023-02-28T12:17:19;102665.56;;;3.88;56.47
3122;BME280;1571;52.524;14.104;2023-02-28T12:20:02;102657.59;;;4.08;56.51
3122;BME280;1571;52.524;14.104;2023-02-28T12:22:37;102653.28;;;3.96;56.80
3122;BME280;1571;52.524;14.104;2023-02-28T12:25:32;102657.72;;;3.81;56.58
3122;BME280;1571;52.524;14.104;2023-02-28T12:28:09;102647.19;;;3.90;56.99
3122;BME280;1571;52.524;14.104;2023-02-28T12:30:41;102643.63;;;4.00;56.63
3122;BME280;1571;52.524;14.104;2023-02-28T12:33:16;102642.66;;;4.21;57.07
3122;BME280;1571;52.524;14.104;2023-02-28T12:35:49;102629.59;;;4.04;56.40
3122;BME280;1571;52.524;14.104;2023-02-28T12:38:21;102634.78;;;4.13;56.43
3122;BME280;1571;52.524;14.104;2023-02-28T12:40:53;102628.69;;;4.10;56.72
3122;BME280;1571;52.524;14.104;2023-02-28T12:43:27;102622.53;;;4.11;56.42
3122;BME280;1571;52.524;14.104;2023-02-28T12:45:59;102617.19;;;4.23;56.96
3122;BME280;1571;52.524;14.104;2023-02-28T12:48:31;102621.75;;;3.93;57.43
3122;BME280;1571;52.524;14.104;2023-02-28T12:51:07;102611.13;;;4.12;57.40
3122;BME280;1571;52.524;14.104;2023-02-28T12:53:46;102607.59;;;4.19;57.52
3122;BME280;1571;52.524;14.104;2023-02-28T12:56:19;102606.00;;;3.90;57.05
3122;BME280;1571;52.524;14.104;2023-02-28T12:58:51;102592.53;;;4.41;57.38
3122;BME280;1571;52.524;14.104;2023-02-28T13:01:36;102584.63;;;4.46;56.86
3122;BME280;1571;52.524;14.104;2023-02-28T13:04:55;102589.88;;;4.50;56.30
3122;BME280;1571;52.524;14.104;2023-02-28T13:10:44;102591.53;;;4.62;56.39
3122;BME280;1571;52.524;14.104;2023-02-28T13:13:15;102601.19;;;4.57;56.43
3122;BME280;1571;52.524;14.104;2023-02-28T13:16:00;102596.19;;;4.22;56.71
3122;BME280;1571;52.524;14.104;2023-02-28T13:18:32;102605.97;;;3.96;56.30
3122;BME280;1571;52.524;14.104;2023-02-28T13:21:00;102606.81;;;4.03;57.02
3122;BME280;1571;52.524;14.104;2023-02-28T13:23:56;102607.69;;;4.02;56.67
3122;BME280;1571;52.524;14.104;2023-02-28T13:29:34;102592.81;;;3.98;55.88
3122;BME280;1571;52.524;14.104;2023-02-28T13:32:20;102591.03;;;4.08;56.61
3122;BME280;1571;52.524;14.104;2023-02-28T13:35:15;102588.28;;;4.23;56.61
3122;BME280;1571;52.524;14.104;2023-02-28T13:38:33;102591.72;;;4.34;56.59
3122;BME280;1571;52.524;14.104;2023-02-28T13:41:43;102591.06;;;4.00;57.14